Time;durP1;ratioP1;P1;durP2;ratioP2;P2;SDS_P1;SDS_P2;PMS_P1;PMS_P2;Temp;Humidity;BMP_temperature;BMP_pressure;BME280_temperature;BME280_humidity;BME280_pressure;Samples;Min_cycle;Max_cycle;Signal;HPM_P1;HPM_P2
2021/05/08 00:02:06;;;;;;;5.80;3.50;;;6.50;99.90;;;;;;5018148;28;20458;-46
2021/05/08 00:04:33;;;;;;;4.27;2.90;;;6.50;99.90;;;;;;5018585;28;20485;-44
2021/05/08 00:07:00;;;;;;;4.27;3.10;;;6.40;99.90;;;;;;5018632;28;20470;-44
2021/05/08 00:09:28;;;;;;;3.37;2.63;;;6.40;99.90;;;;;;5018294;28;20505;-45
2021/05/08 00:11:55;;;;;;;7.37;4.13;;;6.30;99.90;;;;;;5018330;28;20450;-47
2021/05/08 00:14:22;;;;;;;4.87;3.03;;;6.30;99.90;;;;;;5018468;28;20462;-49
2021/05/08 00:16:49;;;;;;;5.60;2.80;;;6.30;99.90;;;;;;5018954;28;20501;-45
2021/05/08 00:19:15;;;;;;;3.80;3.00;;;6.30;99.90;;;;;;5018916;28;20426;-49
2021/05/08 00:21:42;;;;;;;3.13;2.83;;;6.30;99.90;;;;;;5019016;28;20445;-52
2021/05/08 00:24:09;;;;;;;4.73;3.10;;;6.20;99.90;;;;;;5018214;28;20544;-51
2021/05/08 00:26:36;;;;;;;4.60;3.10;;;6.30;99.90;;;;;;5017505;28;20449;-48
2021/05/08 00:29:04;;;;;;;3.83;2.60;;;6.30;99.90;;;;;;5017551;28;20456;-52
2021/05/08 00:31:31;;;;;;;3.67;2.93;;;6.30;99.90;;;;;;5017897;28;20437;-51
2021/05/08 00:33:57;;;;;;;3.23;2.80;;;6.30;99.90;;;;;;5017895;28;20442;-45
2021/05/08 00:36:23;;;;;;;3.57;3.27;;;6.20;99.90;;;;;;5017526;28;20505;-47
2021/05/08 00:38:51;;;;;;;4.57;3.50;;;6.20;99.90;;;;;;5017495;28;20483;-46
2021/05/08 00:41:17;;;;;;;4.50;3.27;;;6.20;99.90;;;;;;5017524;28;20441;-43
2021/05/08 00:43:44;;;;;;;3.90;3.07;;;6.10;99.90;;;;;;5017072;28;20462;-51
2021/05/08 00:46:11;;;;;;;4.30;3.67;;;6.10;99.90;;;;;;5017432;28;20489;-49
2021/05/08 00:48:37;;;;;;;11.33;3.60;;;6.00;99.90;;;;;;5016982;28;20450;-47
2021/05/08 00:51:05;;;;;;;4.43;3.20;;;6.00;99.90;;;;;;5017361;28;20453;-48
2021/05/08 00:53:31;;;;;;;5.63;2.90;;;5.90;99.90;;;;;;5017540;28;20529;-47
2021/05/08 00:55:59;;;;;;;3.27;2.70;;;5.90;99.90;;;;;;5017682;28;20511;-49
2021/05/08 00:58:27;;;;;;;3.50;3.00;;;5.90;99.90;;;;;;5017569;28;20457;-45
2021/05/08 01:00:55;;;;;;;5.20;3.40;;;5.90;99.90;;;;;;5017689;28;20434;-50
2021/05/08 01:03:22;;;;;;;6.07;3.27;;;5.90;99.90;;;;;;5018200;28;20502;-47
2021/05/08 01:05:49;;;;;;;3.33;2.90;;;5.90;99.90;;;;;;5021926;28;20473;-49
2021/05/08 01:08:17;;;;;;;5.53;3.67;;;6.00;99.90;;;;;;5021666;28;20461;-49
2021/05/08 01:10:44;;;;;;;7.07;4.20;;;6.00;99.90;;;;;;5021353;28;20450;-49
2021/05/08 01:13:11;;;;;;;4.60;3.40;;;5.90;99.90;;;;;;5021228;28;20450;-51
2021/05/08 01:15:38;;;;;;;6.07;3.70;;;5.90;99.90;;;;;;5020994;28;20445;-43
2021/05/08 01:18:05;;;;;;;3.67;3.20;;;5.80;99.90;;;;;;5020982;28;20465;-45
2021/05/08 01:20:31;;;;;;;3.77;3.23;;;5.80;99.90;;;;;;5020992;28;20461;-51
2021/05/08 01:22:59;;;;;;;6.13;3.93;;;5.80;99.90;;;;;;5020711;28;20446;-48
2021/05/08 01:25:28;;;;;;;3.30;2.90;;;5.90;99.90;;;;;;5020468;28;20465;-50
2021/05/08 01:27:57;;;;;;;5.50;3.80;;;5.90;99.90;;;;;;5020751;28;20445;-48
2021/05/08 01:30:26;;;;;;;5.40;4.90;;;5.80;99.90;;;;;;5020629;28;20450;-51
2021/05/08 01:32:54;;;;;;;7.37;5.07;;;5.80;99.90;;;;;;5020623;28;20438;-46
2021/05/08 01:35:20;;;;;;;6.20;3.73;;;5.90;99.90;;;;;;5020499;28;20448;-47
2021/05/08 01:37:47;;;;;;;4.13;3.03;;;5.80;99.90;;;;;;5020725;28;20430;-46
2021/05/08 01:40:16;;;;;;;10.63;4.17;;;5.80;99.90;;;;;;5020809;28;20450;-51
2021/05/08 01:42:44;;;;;;;5.70;3.67;;;5.70;99.90;;;;;;5021316;28;20430;-45
2021/05/08 01:45:12;;;;;;;4.57;3.40;;;5.70;99.90;;;;;;5020337;28;20480;-44
2021/05/08 01:47:40;;;;;;;5.30;3.80;;;5.80;99.90;;;;;;5021216;28;20430;-49
2021/05/08 01:50:08;;;;;;;5.00;3.77;;;5.70;99.90;;;;;;5020854;28;20445;-46
2021/05/08 01:52:34;;;;;;;5.03;3.97;;;5.70;99.90;;;;;;5020791;28;20442;-50
2021/05/08 01:55:02;;;;;;;4.50;3.37;;;5.70;99.90;;;;;;5020325;28;20445;-50
2021/05/08 01:57:29;;;;;;;4.47;3.20;;;5.60;99.90;;;;;;5019735;28;20446;-46
2021/05/08 01:59:55;;;;;;;4.60;3.33;;;5.70;99.90;;;;;;5019905;28;20442;-47
2021/05/08 02:02:21;;;;;;;4.60;3.63;;;5.60;99.90;;;;;;5019711;28;20462;-50
2021/05/08 02:04:48;;;;;;;3.57;3.00;;;5.50;99.90;;;;;;5019625;28;20496;-50
2021/05/08 02:07:14;;;;;;;4.63;4.13;;;5.60;99.90;;;;;;5020371;28;20509;-47
2021/05/08 02:09:40;;;;;;;4.50;4.10;;;5.60;99.90;;;;;;5020426;28;20438;-51
2021/05/08 02:12:07;;;;;;;5.03;3.90;;;5.50;99.90;;;;;;5020234;28;20426;-51
2021/05/08 02:14:34;;;;;;;6.47;3.70;;;5.60;99.90;;;;;;5019477;28;20451;-51
2021/05/08 02:17:01;;;;;;;4.43;3.43;;;5.60;99.90;;;;;;5020125;28;20434;-52
2021/05/08 02:19:27;;;;;;;5.10;3.50;;;5.60;99.90;;;;;;5020561;28;20442;-45
2021/05/08 02:21:55;;;;;;;4.50;3.70;;;5.60;99.90;;;;;;5019694;28;20449;-43
2021/05/08 02:24:21;;;;;;;5.50;3.67;;;5.60;99.90;;;;;;5019300;28;20477;-44
2021/05/08 02:26:47;;;;;;;5.13;3.60;;;5.60;99.90;;;;;;5020086;28;20461;-43
2021/05/08 02:29:13;;;;;;;4.00;3.60;;;5.50;99.90;;;;;;5020465;28;20450;-44
2021/05/08 02:31:40;;;;;;;3.93;3.53;;;5.50;99.90;;;;;;5020781;28;20449;-46
2021/05/08 02:34:06;;;;;;;4.13;3.47;;;5.50;99.90;;;;;;5020744;28;20453;-42
2021/05/08 02:36:32;;;;;;;5.27;3.87;;;5.50;99.90;;;;;;5019529;28;20426;-54
2021/05/08 02:38:58;;;;;;;5.63;3.60;;;5.50;99.90;;;;;;5019906;28;20430;-49
2021/05/08 02:41:26;;;;;;;4.80;3.73;;;5.40;99.90;;;;;;5018902;28;20457;-52
2021/05/08 02:43:52;;;;;;;5.00;3.90;;;5.40;99.90;;;;;;5018938;28;20446;-49
2021/05/08 02:46:18;;;;;;;8.13;3.87;;;5.40;99.90;;;;;;5018886;28;20478;-51
2021/05/08 02:48:46;;;;;;;6.07;3.87;;;5.40;99.90;;;;;;5018637;28;20422;-53
2021/05/08 02:51:12;;;;;;;4.00;3.17;;;5.40;99.90;;;;;;5018890;28;20430;-50
2021/05/08 02:53:38;;;;;;;6.17;3.80;;;5.40;99.90;;;;;;5019201;28;20426;-46
2021/05/08 02:56:05;;;;;;;5.17;3.93;;;5.40;99.90;;;;;;5018919;28;20474;-45
2021/05/08 02:58:31;;;;;;;7.90;4.50;;;5.40;99.90;;;;;;5019011;28;20458;-45
2021/05/08 03:00:57;;;;;;;4.77;3.40;;;5.30;99.90;;;;;;5019211;28;20457;-45
2021/05/08 03:03:23;;;;;;;5.33;4.07;;;5.30;99.90;;;;;;5019313;28;20465;-43
2021/05/08 03:05:50;;;;;;;7.03;4.33;;;5.30;99.90;;;;;;5018086;28;20513;-47
2021/05/08 03:08:16;;;;;;;8.97;4.00;;;5.30;99.90;;;;;;5018755;28;20442;-52
2021/05/08 03:10:42;;;;;;;4.97;3.77;;;5.40;99.90;;;;;;5019215;28;20456;-47
2021/05/08 03:13:11;;;;;;;4.80;3.83;;;5.40;99.90;;;;;;5019284;28;20431;-50
2021/05/08 03:15:37;;;;;;;4.30;3.53;;;5.40;99.90;;;;;;5019115;28;20441;-46
2021/05/08 03:18:04;;;;;;;4.93;3.93;;;5.40;99.90;;;;;;5019487;28;20859;-51
2021/05/08 03:20:30;;;;;;;11.00;4.50;;;5.40;99.90;;;;;;5018951;28;20505;-47
2021/05/08 03:22:57;;;;;;;7.83;4.70;;;5.50;99.90;;;;;;5019227;28;20450;-45
2021/05/08 03:25:23;;;;;;;4.20;3.47;;;5.50;99.90;;;;;;5018987;28;20517;-47
2021/05/08 03:27:49;;;;;;;7.20;3.80;;;5.40;99.90;;;;;;5017717;28;20454;-49
2021/05/08 03:30:17;;;;;;;4.33;2.90;;;5.40;99.90;;;;;;5018238;28;20438;-47
2021/05/08 03:32:43;;;;;;;3.93;3.10;;;5.30;99.90;;;;;;5017983;28;20461;-47
2021/05/08 03:35:10;;;;;;;7.33;4.30;;;5.30;99.90;;;;;;5017550;28;20446;-48
2021/05/08 03:37:37;;;;;;;4.50;3.77;;;5.30;99.90;;;;;;5017937;28;20481;-49
2021/05/08 03:40:05;;;;;;;4.53;3.73;;;5.30;99.90;;;;;;5017879;28;20450;-48
2021/05/08 03:42:31;;;;;;;4.80;3.40;;;5.40;99.90;;;;;;5017731;28;20426;-47
2021/05/08 03:44:57;;;;;;;5.50;3.70;;;5.40;99.90;;;;;;5018156;28;20482;-52
2021/05/08 03:47:24;;;;;;;5.47;3.60;;;5.40;99.90;;;;;;5018300;28;20501;-52
2021/05/08 03:49:50;;;;;;;4.83;3.60;;;5.30;99.90;;;;;;5017920;28;20442;-49
2021/05/08 03:52:16;;;;;;;12.23;3.97;;;5.30;99.90;;;;;;5018312;28;20430;-46
2021/05/08 03:54:44;;;;;;;4.80;3.13;;;5.30;99.90;;;;;;5017969;28;20429;-47
2021/05/08 03:57:11;;;;;;;5.90;3.93;;;5.30;99.90;;;;;;5018236;28;20422;-44
2021/05/08 03:59:37;;;;;;;5.60;3.50;;;5.30;99.90;;;;;;5018171;28;20460;-53
2021/05/08 04:02:03;;;;;;;5.10;3.63;;;5.30;99.90;;;;;;5018617;28;20493;-47
2021/05/08 04:04:29;;;;;;;4.93;3.70;;;5.30;99.90;;;;;;5018760;28;20488;-53
2021/05/08 04:06:56;;;;;;;4.80;3.47;;;5.30;99.90;;;;;;5018537;28;20450;-51
2021/05/08 04:09:22;;;;;;;5.00;3.90;;;5.30;99.90;;;;;;5018732;28;20446;-51
2021/05/08 04:11:48;;;;;;;8.53;3.77;;;5.30;99.90;;;;;;5017926;28;20453;-54
2021/05/08 04:14:15;;;;;;;4.53;3.20;;;5.30;99.90;;;;;;5017581;28;20450;-47
2021/05/08 04:16:41;;;;;;;7.87;4.17;;;5.40;99.90;;;;;;5017073;28;20449;-47
2021/05/08 04:19:07;;;;;;;4.00;3.37;;;5.40;99.90;;;;;;5017780;28;20445;-46
2021/05/08 04:21:33;;;;;;;6.97;4.10;;;5.40;99.90;;;;;;5017714;28;20454;-50
2021/05/08 04:23:59;;;;;;;6.97;4.50;;;5.40;99.90;;;;;;5017406;28;20454;-44
2021/05/08 04:26:26;;;;;;;4.30;3.20;;;5.40;99.90;;;;;;5017434;28;20485;-49
2021/05/08 04:28:52;;;;;;;11.60;4.77;;;5.50;99.90;;;;;;5017905;28;20441;-50
2021/05/08 04:31:20;;;;;;;6.97;3.80;;;5.50;99.90;;;;;;5017603;28;20501;-49
2021/05/08 04:33:47;;;;;;;6.23;3.40;;;5.50;99.90;;;;;;5017644;28;20501;-48
2021/05/08 04:36:13;;;;;;;5.47;3.67;;;5.60;99.90;;;;;;5017618;28;20441;-46
2021/05/08 04:38:39;;;;;;;11.43;3.47;;;5.60;99.90;;;;;;5017511;28;20465;-46
2021/05/08 04:41:06;;;;;;;5.23;3.23;;;5.60;99.90;;;;;;5018204;28;20449;-47
2021/05/08 04:43:33;;;;;;;6.03;3.63;;;5.70;99.90;;;;;;5017906;28;20500;-52
2021/05/08 04:45:59;;;;;;;5.50;3.20;;;5.70;99.90;;;;;;5017722;28;20473;-46
2021/05/08 04:48:29;;;;;;;4.10;3.37;;;5.80;99.90;;;;;;5017779;28;20503;-44
2021/05/08 04:50:55;;;;;;;6.97;4.00;;;5.90;99.90;;;;;;5018304;28;20426;-50
2021/05/08 04:55:58;;;;;;;3.97;3.60;;;6.10;99.90;;;;;;5154803;23;20527;-47
2021/05/08 04:58:25;;;;;;;4.50;3.90;;;6.20;99.90;;;;;;5036163;28;20468;-43
2021/05/08 05:00:52;;;;;;;4.73;3.73;;;6.30;99.90;;;;;;5036131;28;20444;-47
2021/05/08 05:03:21;;;;;;;5.10;3.57;;;6.50;99.90;;;;;;5036235;28;20445;-45
2021/05/08 05:05:48;;;;;;;3.83;3.20;;;6.50;99.90;;;;;;5035814;28;20480;-46
2021/05/08 05:08:18;;;;;;;6.00;3.93;;;6.50;99.90;;;;;;5036320;28;20459;-44
2021/05/08 05:10:48;;;;;;;5.13;3.70;;;6.60;99.90;;;;;;5035785;28;20444;-54
2021/05/08 05:13:15;;;;;;;7.57;3.77;;;6.60;99.90;;;;;;5023745;28;20426;-53
2021/05/08 05:15:41;;;;;;;6.10;4.40;;;6.60;99.90;;;;;;5022747;28;20436;-53
2021/05/08 05:18:07;;;;;;;5.40;3.70;;;6.60;99.90;;;;;;5020426;28;20449;-53
2021/05/08 05:20:33;;;;;;;5.83;3.60;;;6.70;99.90;;;;;;5017696;28;20445;-56
2021/05/08 05:23:00;;;;;;;7.30;3.80;;;6.80;99.90;;;;;;5017381;28;20453;-57
2021/05/08 05:25:26;;;;;;;5.23;3.90;;;6.80;99.90;;;;;;5015851;28;20481;-55
2021/05/08 05:27:53;;;;;;;7.50;3.83;;;6.80;99.90;;;;;;5027176;28;20464;-57
2021/05/08 05:30:20;;;;;;;9.10;3.97;;;6.90;99.90;;;;;;5019912;28;20488;-56
2021/05/08 05:32:47;;;;;;;7.23;3.63;;;6.90;99.90;;;;;;5017127;28;20453;-56
2021/05/08 05:35:13;;;;;;;6.77;3.37;;;7.00;99.90;;;;;;5017018;28;20445;-54
2021/05/08 05:37:40;;;;;;;5.67;3.70;;;7.00;99.90;;;;;;5016459;28;20523;-58
2021/05/08 05:40:08;;;;;;;5.57;3.33;;;7.10;99.90;;;;;;5017074;28;20457;-56
2021/05/08 05:42:35;;;;;;;4.70;3.17;;;7.10;99.90;;;;;;5016558;28;20453;-56
2021/05/08 05:45:01;;;;;;;9.70;4.10;;;7.20;99.90;;;;;;5016814;28;20812;-55
2021/05/08 05:47:30;;;;;;;6.23;3.70;;;7.30;99.90;;;;;;5019910;28;20836;-57
2021/05/08 05:49:57;;;;;;;5.37;4.17;;;7.50;99.90;;;;;;5020835;28;20507;-54
2021/05/08 05:52:23;;;;;;;5.07;3.30;;;7.60;99.90;;;;;;5023051;28;20455;-57
2021/05/08 05:54:51;;;;;;;3.20;2.87;;;7.80;99.90;;;;;;5022076;28;20981;-56
2021/05/08 05:57:19;;;;;;;5.17;3.53;;;8.00;99.90;;;;;;5019996;28;20452;-54
2021/05/08 05:59:45;;;;;;;4.27;3.00;;;8.10;99.90;;;;;;5022215;28;20786;-56
2021/05/08 06:02:12;;;;;;;4.63;2.80;;;8.10;99.90;;;;;;5022282;28;20994;-56
2021/05/08 06:04:39;;;;;;;9.03;3.00;;;8.20;99.90;;;;;;5020217;28;20814;-56
2021/05/08 06:07:05;;;;;;;4.73;2.83;;;8.30;99.90;;;;;;5019778;28;20942;-56
2021/05/08 06:09:31;;;;;;;3.63;2.90;;;8.30;99.90;;;;;;5020281;28;20453;-55
2021/05/08 06:11:58;;;;;;;3.20;2.70;;;8.30;99.90;;;;;;5024896;28;20457;-57
2021/05/08 06:14:26;;;;;;;8.30;4.80;;;8.30;99.90;;;;;;5023027;28;20452;-56
2021/05/08 06:16:55;;;;;;;7.20;2.20;;;8.50;99.90;;;;;;5022096;28;20906;-56
2021/05/08 06:19:21;;;;;;;6.10;3.40;;;8.60;99.90;;;;;;5021934;28;20934;-56
2021/05/08 06:21:47;;;;;;;12.27;3.50;;;8.90;99.90;;;;;;5020172;28;20952;-57
2021/05/08 06:24:13;;;;;;;5.20;2.83;;;9.10;99.90;;;;;;5019511;28;20457;-56
2021/05/08 06:26:39;;;;;;;7.33;2.53;;;9.20;99.90;;;;;;5018916;28;20538;-55
2021/05/08 06:29:06;;;;;;;6.47;2.97;;;9.40;99.90;;;;;;5019556;28;20445;-55
2021/05/08 06:31:33;;;;;;;7.57;3.10;;;9.50;99.90;;;;;;5019447;28;20480;-58
2021/05/08 06:33:59;;;;;;;3.50;1.80;;;9.60;99.90;;;;;;5018931;28;20491;-53
2021/05/08 06:36:25;;;;;;;13.80;3.23;;;9.70;99.90;;;;;;5018446;28;20441;-53
2021/05/08 06:38:51;;;;;;;5.37;3.40;;;9.80;99.90;;;;;;5018725;28;20449;-57
2021/05/08 06:41:18;;;;;;;4.40;2.20;;;9.90;99.90;;;;;;5017904;28;20452;-53
2021/05/08 06:43:44;;;;;;;12.50;3.40;;;10.00;99.90;;;;;;5017989;28;20485;-57
2021/05/08 06:46:11;;;;;;;3.13;2.80;;;10.00;99.90;;;;;;5018553;28;20496;-55
2021/05/08 06:48:38;;;;;;;4.30;1.80;;;10.20;99.90;;;;;;5018875;28;20444;-58
2021/05/08 06:51:06;;;;;;;4.23;2.37;;;10.30;99.90;;;;;;5019464;28;20440;-52
2021/05/08 06:53:32;;;;;;;5.33;2.03;;;10.30;99.90;;;;;;5019112;28;20937;-55
2021/05/08 06:55:59;;;;;;;6.30;2.40;;;10.40;99.90;;;;;;5017811;28;20788;-57
2021/05/08 06:58:25;;;;;;;4.20;2.40;;;10.40;99.90;;;;;;5018121;28;20453;-57
2021/05/08 07:00:51;;;;;;;4.97;2.37;;;10.40;99.90;;;;;;5017835;28;20445;-53
2021/05/08 07:03:18;;;;;;;3.20;2.00;;;10.40;99.90;;;;;;5018155;28;20453;-52
2021/05/08 07:05:45;;;;;;;6.20;2.30;;;10.60;99.90;;;;;;5017612;28;20477;-52
2021/05/08 07:08:12;;;;;;;9.03;3.17;;;10.70;99.90;;;;;;5017572;28;20453;-54
2021/05/08 07:10:49;;;;;;;6.43;2.60;;;10.80;99.90;;;;;;5017351;28;20465;-52
2021/05/08 07:13:15;;;;;;;4.60;2.33;;;10.80;99.90;;;;;;5017589;28;20453;-53
2021/05/08 07:15:42;;;;;;;5.13;2.23;;;10.90;99.90;;;;;;5018069;28;20769;-52
2021/05/08 07:18:09;;;;;;;4.30;2.30;;;11.10;99.90;;;;;;5017832;28;20453;-58
2021/05/08 07:20:37;;;;;;;6.80;2.40;;;11.40;99.90;;;;;;5017464;28;20532;-56
2021/05/08 07:23:06;;;;;;;2.80;2.37;;;11.60;99.90;;;;;;5017163;28;20944;-56
2021/05/08 07:25:34;;;;;;;4.93;3.17;;;11.80;99.90;;;;;;5017099;28;20480;-58
2021/05/08 07:28:11;;;;;;;3.57;1.90;;;11.80;99.90;;;;;;5017141;28;20476;-54
2021/05/08 07:30:38;;;;;;;4.63;2.20;;;11.80;99.90;;;;;;5016905;28;20754;-57
2021/05/08 07:33:04;;;;;;;7.07;2.90;;;11.80;99.90;;;;;;5017070;28;20573;-58
2021/05/08 07:35:31;;;;;;;3.03;1.87;;;11.80;99.90;;;;;;5017269;28;20480;-56
2021/05/08 07:37:57;;;;;;;5.77;2.63;;;12.30;99.90;;;;;;5016559;28;20457;-60
2021/05/08 07:40:24;;;;;;;6.03;3.17;;;13.30;99.90;;;;;;5015479;28;20449;-57
2021/05/08 07:42:50;;;;;;;2.20;2.00;;;14.70;99.90;;;;;;5015512;28;20465;-58
2021/05/08 07:45:17;;;;;;;4.33;2.33;;;16.00;99.30;;;;;;5015652;28;20484;-53
2021/05/08 07:47:43;;;;;;;4.33;2.13;;;17.10;94.20;;;;;;5016464;28;20464;-56
2021/05/08 07:50:11;;;;;;;2.53;1.80;;;18.00;88.80;;;;;;5015524;28;21020;-54
2021/05/08 07:52:37;;;;;;;5.60;2.30;;;18.50;80.20;;;;;;5016139;28;20461;-55
2021/05/08 07:55:05;;;;;;;4.83;2.37;;;19.50;72.80;;;;;;5016021;28;20555;-55
2021/05/08 07:57:32;;;;;;;3.97;2.00;;;19.90;67.00;;;;;;5016016;28;20523;-56
2021/05/08 07:59:58;;;;;;;4.40;2.00;;;20.20;63.80;;;;;;5015427;28;20802;-57
2021/05/08 08:02:24;;;;;;;3.17;1.87;;;20.40;59.70;;;;;;5014771;28;20456;-58
2021/05/08 08:04:50;;;;;;;4.77;2.50;;;20.30;58.30;;;;;;5014848;28;20485;-53
2021/05/08 08:07:17;;;;;;;2.33;1.77;;;20.60;58.20;;;;;;5014712;28;20449;-53
2021/05/08 08:09:43;;;;;;;3.23;2.30;;;20.60;56.90;;;;;;5014573;28;20461;-58
2021/05/08 08:12:10;;;;;;;4.00;2.40;;;20.60;57.90;;;;;;5014149;28;20922;-59
2021/05/08 08:14:38;;;;;;;7.60;2.37;;;21.10;57.70;;;;;;5014517;28;20751;-57
2021/05/08 08:17:04;;;;;;;3.47;2.80;;;21.90;54.90;;;;;;5014428;28;21044;-59
2021/05/08 08:19:30;;;;;;;7.83;2.70;;;21.50;52.20;;;;;;5014269;28;20972;-59
2021/05/08 08:21:57;;;;;;;5.37;2.70;;;20.60;53.30;;;;;;5014670;28;20898;-58
2021/05/08 08:24:23;;;;;;;3.20;2.30;;;20.40;53.40;;;;;;5014282;28;20910;-57
2021/05/08 08:26:50;;;;;;;3.57;2.53;;;20.60;54.70;;;;;;5014211;28;20961;-58
2021/05/08 08:29:16;;;;;;;4.87;2.70;;;20.40;53.60;;;;;;5014178;28;20913;-58
2021/05/08 08:31:43;;;;;;;4.53;2.80;;;20.00;52.30;;;;;;5014410;28;20440;-58
2021/05/08 08:34:10;;;;;;;6.60;3.33;;;20.00;53.10;;;;;;5014712;28;20523;-56
2021/05/08 08:36:38;;;;;;;7.10;3.17;;;19.00;50.10;;;;;;5014205;28;20544;-54
2021/05/08 08:39:05;;;;;;;3.37;3.00;;;18.30;53.00;;;;;;5014573;28;20528;-58
2021/05/08 08:41:31;;;;;;;3.40;3.10;;;18.10;53.70;;;;;;5014688;28;20472;-56
2021/05/08 08:43:58;;;;;;;8.00;3.37;;;17.70;54.00;;;;;;5014893;28;20588;-58
2021/05/08 08:46:24;;;;;;;3.70;2.40;;;16.70;55.70;;;;;;5014705;28;20977;-58
2021/05/08 08:48:52;;;;;;;5.40;3.13;;;16.60;55.80;;;;;;5015039;28;20479;-55
2021/05/08 08:51:18;;;;;;;3.33;2.80;;;17.60;56.60;;;;;;5014883;28;20445;-57
2021/05/08 08:53:48;;;;;;;5.97;2.50;;;18.50;56.20;;;;;;5014668;28;20580;-56
2021/05/08 08:56:15;;;;;;;7.40;3.63;;;18.40;53.70;;;;;;5014209;28;20571;-58
2021/05/08 08:58:44;;;;;;;5.27;3.50;;;17.50;54.00;;;;;;5014448;28;20472;-55
2021/05/08 09:01:10;;;;;;;5.47;2.67;;;17.50;55.60;;;;;;5014313;28;20445;-57
2021/05/08 09:03:37;;;;;;;5.00;2.87;;;17.10;55.90;;;;;;5013715;28;20506;-58
2021/05/08 09:06:04;;;;;;;6.83;2.97;;;16.40;57.00;;;;;;5013636;28;20876;-55
2021/05/08 09:08:31;;;;;;;7.83;3.47;;;16.10;59.20;;;;;;5014376;28;20516;-55
2021/05/08 09:11:20;;;;;;;7.70;3.23;;;15.30;58.40;;;;;;5014465;28;20536;-58
2021/05/08 09:13:46;;;;;;;3.40;3.10;;;14.60;60.60;;;;;;5013446;28;20441;-55
2021/05/08 09:16:13;;;;;;;5.87;4.00;;;15.30;61.60;;;;;;5013415;28;20453;-58
2021/05/08 09:18:40;;;;;;;4.97;3.00;;;16.30;58.80;;;;;;5028070;28;20436;-56
2021/05/08 09:21:09;;;;;;;3.37;3.07;;;16.70;57.80;;;;;;5029780;28;20433;-55
2021/05/08 09:23:37;;;;;;;6.60;2.57;;;16.40;57.70;;;;;;5014561;28;20960;-53
2021/05/08 09:26:05;;;;;;;7.30;2.67;;;15.50;57.30;;;;;;5017076;28;20495;-55
2021/05/08 09:28:34;;;;;;;3.50;2.47;;;15.00;60.10;;;;;;5018151;28;20453;-56
2021/05/08 09:31:01;;;;;;;6.70;2.87;;;15.40;61.00;;;;;;5017908;28;20453;-57
2021/05/08 09:33:29;;;;;;;4.23;2.57;;;15.60;59.80;;;;;;5017563;28;20464;-56
2021/05/08 09:36:05;;;;;;;3.57;3.23;;;16.00;59.10;;;;;;5017922;28;20452;-56
2021/05/08 09:38:34;;;;;;;4.30;2.90;;;16.00;58.30;;;;;;5009921;28;20786;-55
2021/05/08 09:41:01;;;;;;;3.23;2.93;;;15.70;59.90;;;;;;4998349;28;20550;-57
2021/05/08 09:43:30;;;;;;;4.60;2.90;;;15.00;58.50;;;;;;4998008;28;20477;-57
2021/05/08 09:45:58;;;;;;;9.47;4.03;;;15.50;60.00;;;;;;4998123;28;20485;-55
2021/05/08 09:48:27;;;;;;;5.90;4.10;;;15.70;58.10;;;;;;4998280;28;20937;-55
2021/05/08 09:51:14;;;;;;;4.63;3.23;;;15.40;58.20;;;;;;4998373;28;20470;-53
2021/05/08 09:53:42;;;;;;;3.20;2.50;;;15.00;59.20;;;;;;4998497;28;20465;-54
2021/05/08 09:56:34;;;;;;;3.43;2.97;;;15.00;58.10;;;;;;4997854;28;20481;-53
2021/05/08 09:59:24;;;;;;;3.93;2.87;;;14.70;59.50;;;;;;4997891;28;20462;-57
2021/05/08 10:02:11;;;;;;;4.70;3.00;;;15.50;61.20;;;;;;4997150;28;20569;-55
2021/05/08 10:04:43;;;;;;;7.03;3.77;;;16.90;59.70;;;;;;4982630;28;20458;-57
2021/05/08 10:07:10;;;;;;;6.00;3.37;;;18.10;56.10;;;;;;4997535;28;20871;-57
2021/05/08 10:09:39;;;;;;;3.87;3.23;;;19.20;54.50;;;;;;4996995;28;20965;-58
2021/05/08 10:12:07;;;;;;;3.47;3.17;;;19.20;53.20;;;;;;5006005;28;20499;-55
2021/05/08 10:14:34;;;;;;;3.57;3.20;;;19.50;53.90;;;;;;5016323;28;20499;-57
2021/05/08 10:17:01;;;;;;;4.77;3.30;;;20.10;53.60;;;;;;5016719;28;20461;-59
2021/05/08 10:19:30;;;;;;;4.30;2.70;;;20.70;51.70;;;;;;5016660;28;20456;-56
2021/05/08 10:21:58;;;;;;;5.17;3.53;;;21.00;51.00;;;;;;5016716;28;20445;-57
2021/05/08 10:24:26;;;;;;;6.07;2.90;;;20.90;50.80;;;;;;5016620;28;20528;-57
2021/05/08 10:26:57;;;;;;;4.53;3.60;;;20.80;50.80;;;;;;5025863;28;20498;-56
2021/05/08 10:29:25;;;;;;;4.30;3.10;;;21.00;51.00;;;;;;5033067;28;20442;-59
2021/05/08 10:31:52;;;;;;;3.57;3.27;;;20.90;51.90;;;;;;5032845;28;20756;-56
2021/05/08 10:34:30;;;;;;;7.27;3.30;;;21.00;49.10;;;;;;5033248;28;20449;-60
2021/05/08 10:37:06;;;;;;;4.50;3.30;;;21.10;50.20;;;;;;5031928;28;20461;-60
2021/05/08 10:39:48;;;;;;;6.30;4.00;;;21.30;49.80;;;;;;5032755;28;20475;-59
2021/05/08 10:45:38;;;;;;;4.70;3.33;;;20.70;48.60;;;;;;5065531;28;20503;-57
2021/05/08 10:48:09;;;;;;;5.73;3.67;;;19.50;50.90;;;;;;5063436;28;20470;-57
2021/05/08 10:50:38;;;;;;;3.43;3.10;;;19.20;50.60;;;;;;5055214;28;20478;-57
2021/05/08 10:53:09;;;;;;;6.67;3.87;;;19.20;50.90;;;;;;5052677;28;20455;-60
2021/05/08 10:55:47;;;;;;;3.50;2.83;;;19.30;52.60;;;;;;5057283;28;20430;-55
2021/05/08 10:58:43;;;;;;;3.83;2.80;;;18.80;50.20;;;;;;5050893;28;20472;-58
2021/05/08 11:01:13;;;;;;;3.30;3.00;;;18.80;50.80;;;;;;5054574;28;20488;-58
2021/05/08 11:04:02;;;;;;;4.70;2.83;;;18.60;51.40;;;;;;5056792;28;20476;-59
2021/05/08 11:06:31;;;;;;;3.93;2.63;;;18.50;51.90;;;;;;5049111;28;20437;-60
2021/05/08 11:08:58;;;;;;;4.03;2.77;;;18.10;52.80;;;;;;5056493;28;20420;-59
2021/05/08 11:11:40;;;;;;;3.60;2.90;;;18.00;54.40;;;;;;5065800;28;20828;-59
2021/05/08 11:14:06;;;;;;;4.80;3.27;;;17.80;52.40;;;;;;5064926;28;20429;-58
2021/05/08 11:16:36;;;;;;;4.47;3.27;;;17.40;52.70;;;;;;5051462;28;20439;-59
2021/05/08 11:19:24;;;;;;;3.23;2.63;;;17.00;53.40;;;;;;5067255;28;20479;-57
2021/05/08 11:22:05;;;;;;;3.70;2.73;;;16.80;53.90;;;;;;5069648;28;20416;-58
2021/05/08 11:24:39;;;;;;;3.90;3.50;;;16.80;53.10;;;;;;5068914;28;20490;-58
2021/05/08 11:27:22;;;;;;;3.43;3.13;;;16.60;52.60;;;;;;5051768;28;20437;-59
2021/05/08 11:29:48;;;;;;;7.50;3.33;;;16.50;53.40;;;;;;5049378;28;20772;-60
2021/05/08 11:32:16;;;;;;;11.27;4.23;;;16.30;53.60;;;;;;5067887;28;20439;-55
2021/05/08 11:34:44;;;;;;;4.97;3.17;;;16.30;55.50;;;;;;5068950;28;20450;-58
2021/05/08 11:37:13;;;;;;;4.23;3.53;;;16.50;54.40;;;;;;5058892;28;20449;-58
2021/05/08 11:39:40;;;;;;;4.17;3.30;;;16.60;54.20;;;;;;5049136;28;20439;-60
2021/05/08 11:42:12;;;;;;;3.80;2.90;;;16.60;54.20;;;;;;5049753;28;20440;-60
2021/05/08 11:44:40;;;;;;;4.73;2.77;;;16.60;54.30;;;;;;5083619;28;20482;-58
2021/05/08 11:47:27;;;;;;;4.20;2.80;;;16.70;54.10;;;;;;5085470;28;20449;-58
2021/05/08 11:49:58;;;;;;;4.17;2.80;;;16.70;53.30;;;;;;5072586;28;20451;-57
2021/05/08 11:52:32;;;;;;;3.80;3.13;;;16.90;54.40;;;;;;5081900;28;20449;-57
2021/05/08 11:54:59;;;;;;;5.33;3.00;;;17.10;53.90;;;;;;5068673;28;20460;-58
2021/05/08 11:57:25;;;;;;;2.90;2.57;;;17.10;53.50;;;;;;5060521;28;20514;-56
2021/05/08 11:59:52;;;;;;;3.73;2.83;;;17.20;54.00;;;;;;5068216;28;20523;-56
2021/05/08 12:02:19;;;;;;;7.43;2.43;;;17.10;53.80;;;;;;5067661;28;20423;-57
2021/05/08 12:04:54;;;;;;;6.20;3.10;;;17.10;53.60;;;;;;5074904;28;20483;-59
2021/05/08 12:07:25;;;;;;;4.23;3.73;;;17.00;53.80;;;;;;5074595;28;20444;-57
2021/05/08 12:09:53;;;;;;;3.67;3.17;;;17.00;53.30;;;;;;5059550;28;20436;-59
2021/05/08 12:12:19;;;;;;;7.37;2.97;;;17.10;53.00;;;;;;5054959;28;20458;-59
2021/05/08 12:14:47;;;;;;;4.67;3.27;;;17.20;53.50;;;;;;5054634;28;20444;-59
2021/05/08 12:17:14;;;;;;;3.50;3.20;;;17.20;53.30;;;;;;5054588;28;20440;-58
2021/05/08 12:19:45;;;;;;;4.27;2.87;;;17.10;53.40;;;;;;5059273;28;20423;-60
2021/05/08 12:22:11;;;;;;;3.90;2.50;;;17.00;53.70;;;;;;5054545;28;20428;-60
2021/05/08 12:24:39;;;;;;;2.97;2.53;;;17.20;52.60;;;;;;5072726;28;20471;-60
2021/05/08 12:27:06;;;;;;;4.27;3.03;;;17.40;52.60;;;;;;5060876;28;20508;-60
2021/05/08 12:29:55;;;;;;;2.47;2.20;;;17.30;52.50;;;;;;5062530;28;20468;-59
2021/05/08 12:32:21;;;;;;;5.97;2.50;;;17.10;52.50;;;;;;5064917;28;20423;-59
2021/05/08 12:34:54;;;;;;;5.00;3.33;;;16.90;53.70;;;;;;5065969;28;20503;-61
2021/05/08 12:37:21;;;;;;;4.50;3.30;;;16.70;53.10;;;;;;5060758;28;20428;-60
2021/05/08 12:39:48;;;;;;;2.80;2.50;;;16.80;53.30;;;;;;5063348;27;20447;-59
2021/05/08 12:42:17;;;;;;;6.50;2.97;;;17.10;53.90;;;;;;5068800;28;20428;-58
2021/05/08 12:44:46;;;;;;;2.50;2.30;;;17.20;53.10;;;;;;5055830;28;20526;-60
2021/05/08 12:47:19;;;;;;;5.27;3.00;;;17.20;53.00;;;;;;5055847;28;20423;-61
2021/05/08 12:50:10;;;;;;;3.20;2.50;;;17.20;51.90;;;;;;5063846;28;20433;-56
2021/05/08 12:52:41;;;;;;;4.83;3.30;;;17.20;52.30;;;;;;5057027;28;20444;-59
2021/05/08 12:55:22;;;;;;;3.30;2.37;;;17.30;51.60;;;;;;5054563;28;20490;-60
2021/05/08 12:57:49;;;;;;;3.03;2.60;;;17.50;53.00;;;;;;5068686;28;20432;-59
2021/05/08 13:00:17;;;;;;;8.00;2.80;;;17.60;51.30;;;;;;5074384;28;20535;-59
2021/05/08 13:02:45;;;;;;;5.50;2.30;;;17.50;53.80;;;;;;5068801;28;20434;-58
2021/05/08 13:05:13;;;;;;;2.93;2.60;;;17.30;51.20;;;;;;5054696;28;20475;-57